sensor_id;sensor_type;location;lat;lon;timestamp;P1;durP1;ratioP1;P2;durP2;ratioP2
53293;SDS011;39181;53.440;5.644;2023-01-06T00:01:52;34.03;;;3.35;;
53293;SDS011;39181;53.440;5.644;2023-01-06T00:04:18;37.50;;;5.50;;
53293;SDS011;39181;53.440;5.644;2023-01-06T00:06:43;38.03;;;4.72;;
53293;SDS011;39181;53.440;5.644;2023-01-06T00:09:09;31.50;;;3.60;;
53293;SDS011;39181;53.440;5.644;2023-01-06T00:11:34;35.38;;;3.72;;
53293;SDS011;39181;53.440;5.644;2023-01-06T00:14:01;28.75;;;3.63;;
53293;SDS011;39181;53.440;5.644;2023-01-06T00:16:27;40.33;;;4.22;;
53293;SDS011;39181;53.440;5.644;2023-01-06T00:18:53;49.70;;;6.18;;
53293;SDS011;39181;53.440;5.644;2023-01-06T00:21:20;34.25;;;5.03;;
53293;SDS011;39181;53.440;5.644;2023-01-06T00:23:45;36.22;;;4.05;;
53293;SDS011;39181;53.440;5.644;2023-01-06T00:26:11;37.13;;;4.38;;
53293;SDS011;39181;53.440;5.644;2023-01-06T00:28:36;45.13;;;3.90;;
53293;SDS011;39181;53.440;5.644;2023-01-06T00:31:06;32.20;;;4.35;;
53293;SDS011;39181;53.440;5.644;2023-01-06T00:33:33;40.92;;;3.67;;
53293;SDS011;39181;53.440;5.644;2023-01-06T00:35:59;35.53;;;3.88;;
53293;SDS011;39181;53.440;5.644;2023-01-06T00:38:25;34.58;;;3.88;;
53293;SDS011;39181;53.440;5.644;2023-01-06T00:40:51;35.22;;;3.35;;
53293;SDS011;39181;53.440;5.644;2023-01-06T00:43:16;37.00;;;3.42;;
53293;SDS011;39181;53.440;5.644;2023-01-06T00:45:42;28.35;;;3.15;;
53293;SDS011;39181;53.440;5.644;2023-01-06T00:48:08;28.55;;;3.72;;
53293;SDS011;39181;53.440;5.644;2023-01-06T00:50:33;28.58;;;2.78;;
53293;SDS011;39181;53.440;5.644;2023-01-06T00:52:59;32.67;;;3.67;;
53293;SDS011;39181;53.440;5.644;2023-01-06T00:55:24;23.02;;;3.05;;
53293;SDS011;39181;53.440;5.644;2023-01-06T00:57:50;38.25;;;3.45;;
53293;SDS011;39181;53.440;5.644;2023-01-06T01:00:16;28.10;;;3.15;;
53293;SDS011;39181;53.440;5.644;2023-01-06T01:02:43;27.85;;;3.70;;
53293;SDS011;39181;53.440;5.644;2023-01-06T01:05:08;30.40;;;3.75;;
53293;SDS011;39181;53.440;5.644;2023-01-06T01:07:34;36.70;;;3.28;;
53293;SDS011;39181;53.440;5.644;2023-01-06T01:09:59;23.13;;;3.35;;
53293;SDS011;39181;53.440;5.644;2023-01-06T01:12:25;31.92;;;3.47;;
53293;SDS011;39181;53.440;5.644;2023-01-06T01:14:52;33.55;;;3.75;;
53293;SDS011;39181;53.440;5.644;2023-01-06T01:17:19;34.13;;;4.07;;
53293;SDS011;39181;53.440;5.644;2023-01-06T01:19:46;29.63;;;4.00;;
53293;SDS011;39181;53.440;5.644;2023-01-06T01:22:13;29.33;;;3.65;;
53293;SDS011;39181;53.440;5.644;2023-01-06T01:24:39;23.90;;;3.30;;
53293;SDS011;39181;53.440;5.644;2023-01-06T01:27:05;26.73;;;3.33;;
53293;SDS011;39181;53.440;5.644;2023-01-06T01:29:31;28.80;;;3.95;;
53293;SDS011;39181;53.440;5.644;2023-01-06T01:31:56;24.08;;;3.17;;
53293;SDS011;39181;53.440;5.644;2023-01-06T01:34:22;30.83;;;3.25;;
53293;SDS011;39181;53.440;5.644;2023-01-06T01:36:48;23.70;;;3.25;;
53293;SDS011;39181;53.440;5.644;2023-01-06T01:39:17;28.63;;;4.60;;
53293;SDS011;39181;53.440;5.644;2023-01-06T01:41:44;25.95;;;2.58;;
53293;SDS011;39181;53.440;5.644;2023-01-06T01:47:15;27.42;;;3.88;;
53293;SDS011;39181;53.440;5.644;2023-01-06T01:49:45;30.33;;;3.88;;
53293;SDS011;39181;53.440;5.644;2023-01-06T01:52:15;26.60;;;2.83;;
53293;SDS011;39181;53.440;5.644;2023-01-06T01:54:42;23.60;;;2.72;;
53293;SDS011;39181;53.440;5.644;2023-01-06T01:57:22;20.65;;;2.50;;
53293;SDS011;39181;53.440;5.644;2023-01-06T01:59:59;22.88;;;3.17;;
53293;SDS011;39181;53.440;5.644;2023-01-06T02:02:25;30.58;;;4.68;;
53293;SDS011;39181;53.440;5.644;2023-01-06T02:04:54;19.88;;;2.65;;
53293;SDS011;39181;53.440;5.644;2023-01-06T02:07:20;30.75;;;2.83;;
53293;SDS011;39181;53.440;5.644;2023-01-06T02:09:55;24.13;;;2.58;;
53293;SDS011;39181;53.440;5.644;2023-01-06T02:12:39;18.80;;;2.40;;
53293;SDS011;39181;53.440;5.644;2023-01-06T02:15:22;16.45;;;2.60;;
53293;SDS011;39181;53.440;5.644;2023-01-06T02:21:12;17.00;;;2.45;;
53293;SDS011;39181;53.440;5.644;2023-01-06T02:23:55;20.63;;;2.38;;
53293;SDS011;39181;53.440;5.644;2023-01-06T02:29:46;18.13;;;2.20;;
53293;SDS011;39181;53.440;5.644;2023-01-06T02:43:50;16.52;;;2.10;;
53293;SDS011;39181;53.440;5.644;2023-01-06T03:00:14;19.13;;;2.22;;
53293;SDS011;39181;53.440;5.644;2023-01-06T03:03:04;18.33;;;2.05;;
53293;SDS011;39181;53.440;5.644;2023-01-06T03:05:42;12.20;;;1.40;;
53293;SDS011;39181;53.440;5.644;2023-01-06T03:08:12;20.40;;;2.42;;
53293;SDS011;39181;53.440;5.644;2023-01-06T03:10:41;13.20;;;1.80;;
53293;SDS011;39181;53.440;5.644;2023-01-06T03:13:52;12.48;;;1.77;;
53293;SDS011;39181;53.440;5.644;2023-01-06T03:16:03;9.10;;;1.20;;
53293;SDS011;39181;53.440;5.644;2023-01-06T03:18:30;9.07;;;1.83;;
53293;SDS011;39181;53.440;5.644;2023-01-06T03:20:57;10.63;;;1.20;;
53293;SDS011;39181;53.440;5.644;2023-01-06T03:23:25;13.00;;;1.23;;
53293;SDS011;39181;53.440;5.644;2023-01-06T03:25:51;9.63;;;1.30;;
53293;SDS011;39181;53.440;5.644;2023-01-06T03:28:17;8.68;;;1.15;;
53293;SDS011;39181;53.440;5.644;2023-01-06T03:30:44;13.60;;;1.50;;
53293;SDS011;39181;53.440;5.644;2023-01-06T03:33:27;10.30;;;1.70;;
53293;SDS011;39181;53.440;5.644;2023-01-06T03:36:07;13.75;;;2.22;;
53293;SDS011;39181;53.440;5.644;2023-01-06T03:44:46;18.00;;;2.45;;
53293;SDS011;39181;53.440;5.644;2023-01-06T03:47:23;14.52;;;2.15;;
53293;SDS011;39181;53.440;5.644;2023-01-06T03:50:01;9.15;;;2.30;;
53293;SDS011;39181;53.440;5.644;2023-01-06T03:52:34;13.50;;;2.03;;
53293;SDS011;39181;53.440;5.644;2023-01-06T03:55:07;9.10;;;1.55;;
53293;SDS011;39181;53.440;5.644;2023-01-06T04:02:41;8.93;;;1.67;;
53293;SDS011;39181;53.440;5.644;2023-01-06T04:07:36;9.48;;;1.55;;
53293;SDS011;39181;53.440;5.644;2023-01-06T04:10:03;6.13;;;1.70;;
53293;SDS011;39181;53.440;5.644;2023-01-06T04:12:29;7.22;;;1.92;;
53293;SDS011;39181;53.440;5.644;2023-01-06T04:15:04;8.10;;;2.03;;
53293;SDS011;39181;53.440;5.644;2023-01-06T04:17:32;11.00;;;2.10;;
53293;SDS011;39181;53.440;5.644;2023-01-06T04:19:57;8.05;;;3.10;;
53293;SDS011;39181;53.440;5.644;2023-01-06T04:22:25;5.72;;;2.10;;
53293;SDS011;39181;53.440;5.644;2023-01-06T04:24:50;5.97;;;2.40;;
53293;SDS011;39181;53.440;5.644;2023-01-06T04:27:16;8.45;;;2.67;;
53293;SDS011;39181;53.440;5.644;2023-01-06T04:29:41;8.82;;;2.65;;
53293;SDS011;39181;53.440;5.644;2023-01-06T04:32:07;15.02;;;2.30;;
53293;SDS011;39181;53.440;5.644;2023-01-06T04:34:32;11.05;;;2.30;;
53293;SDS011;39181;53.440;5.644;2023-01-06T04:36:58;10.02;;;2.35;;
53293;SDS011;39181;53.440;5.644;2023-01-06T04:39:24;6.78;;;2.40;;
53293;SDS011;39181;53.440;5.644;2023-01-06T04:41:49;10.68;;;2.55;;
53293;SDS011;39181;53.440;5.644;2023-01-06T04:44:15;11.57;;;3.17;;
53293;SDS011;39181;53.440;5.644;2023-01-06T04:46:40;9.40;;;2.13;;
53293;SDS011;39181;53.440;5.644;2023-01-06T04:49:06;11.57;;;2.28;;
53293;SDS011;39181;53.440;5.644;2023-01-06T04:51:32;11.02;;;2.08;;
53293;SDS011;39181;53.440;5.644;2023-01-06T04:53:57;10.95;;;2.40;;
53293;SDS011;39181;53.440;5.644;2023-01-06T04:56:23;9.02;;;2.10;;
53293;SDS011;39181;53.440;5.644;2023-01-06T04:58:51;8.38;;;2.22;;
53293;SDS011;39181;53.440;5.644;2023-01-06T05:01:21;11.90;;;2.47;;
53293;SDS011;39181;53.440;5.644;2023-01-06T05:03:47;9.73;;;2.30;;
53293;SDS011;39181;53.440;5.644;2023-01-06T05:06:13;10.77;;;2.30;;
53293;SDS011;39181;53.440;5.644;2023-01-06T05:08:41;9.32;;;1.92;;
53293;SDS011;39181;53.440;5.644;2023-01-06T05:11:14;14.15;;;2.30;;
53293;SDS011;39181;53.440;5.644;2023-01-06T05:13:42;12.98;;;2.40;;
53293;SDS011;39181;53.440;5.644;2023-01-06T05:16:09;14.82;;;2.42;;
53293;SDS011;39181;53.440;5.644;2023-01-06T05:18:37;17.70;;;2.38;;
53293;SDS011;39181;53.440;5.644;2023-01-06T05:21:03;17.20;;;2.50;;
53293;SDS011;39181;53.440;5.644;2023-01-06T05:23:28;27.00;;;2.92;;
53293;SDS011;39181;53.440;5.644;2023-01-06T05:25:54;25.70;;;2.83;;
53293;SDS011;39181;53.440;5.644;2023-01-06T05:28:20;16.75;;;2.63;;
53293;SDS011;39181;53.440;5.644;2023-01-06T05:30:45;30.98;;;3.15;;
53293;SDS011;39181;53.440;5.644;2023-01-06T05:33:11;26.23;;;2.90;;
53293;SDS011;39181;53.440;5.644;2023-01-06T05:35:37;23.75;;;3.10;;
53293;SDS011;39181;53.440;5.644;2023-01-06T05:38:03;21.00;;;2.88;;
53293;SDS011;39181;53.440;5.644;2023-01-06T05:40:29;19.00;;;2.38;;
53293;SDS011;39181;53.440;5.644;2023-01-06T05:42:55;18.83;;;2.88;;
53293;SDS011;39181;53.440;5.644;2023-01-06T05:45:21;15.80;;;2.78;;
53293;SDS011;39181;53.440;5.644;2023-01-06T05:47:47;27.60;;;2.97;;
53293;SDS011;39181;53.440;5.644;2023-01-06T05:50:13;22.52;;;2.47;;
53293;SDS011;39181;53.440;5.644;2023-01-06T05:52:39;17.90;;;2.78;;
53293;SDS011;39181;53.440;5.644;2023-01-06T05:55:04;20.02;;;2.80;;
53293;SDS011;39181;53.440;5.644;2023-01-06T05:57:34;13.35;;;2.55;;
53293;SDS011;39181;53.440;5.644;2023-01-06T06:00:01;14.82;;;1.95;;
53293;SDS011;39181;53.440;5.644;2023-01-06T06:02:29;25.90;;;2.78;;
53293;SDS011;39181;53.440;5.644;2023-01-06T06:04:55;17.67;;;2.75;;
53293;SDS011;39181;53.440;5.644;2023-01-06T06:07:20;11.48;;;2.30;;
53293;SDS011;39181;53.440;5.644;2023-01-06T06:09:46;20.92;;;3.10;;
53293;SDS011;39181;53.440;5.644;2023-01-06T06:12:12;17.13;;;2.53;;
53293;SDS011;39181;53.440;5.644;2023-01-06T06:14:37;24.10;;;3.33;;
53293;SDS011;39181;53.440;5.644;2023-01-06T06:17:03;25.83;;;2.95;;
53293;SDS011;39181;53.440;5.644;2023-01-06T06:19:28;26.63;;;3.30;;
53293;SDS011;39181;53.440;5.644;2023-01-06T06:21:54;28.65;;;3.83;;
53293;SDS011;39181;53.440;5.644;2023-01-06T06:24:19;25.23;;;2.95;;
53293;SDS011;39181;53.440;5.644;2023-01-06T06:26:45;25.27;;;2.60;;
53293;SDS011;39181;53.440;5.644;2023-01-06T06:29:10;21.65;;;3.22;;
53293;SDS011;39181;53.440;5.644;2023-01-06T06:31:36;35.55;;;4.47;;
53293;SDS011;39181;53.440;5.644;2023-01-06T06:34:02;33.80;;;3.70;;
53293;SDS011;39181;53.440;5.644;2023-01-06T06:36:28;32.67;;;3.35;;
53293;SDS011;39181;53.440;5.644;2023-01-06T06:38:55;28.83;;;2.80;;
53293;SDS011;39181;53.440;5.644;2023-01-06T06:41:23;27.60;;;3.88;;
53293;SDS011;39181;53.440;5.644;2023-01-06T06:43:50;22.08;;;2.70;;
53293;SDS011;39181;53.440;5.644;2023-01-06T06:46:16;41.40;;;4.38;;
53293;SDS011;39181;53.440;5.644;2023-01-06T06:48:42;28.20;;;4.25;;
53293;SDS011;39181;53.440;5.644;2023-01-06T06:51:09;38.30;;;3.97;;
53293;SDS011;39181;53.440;5.644;2023-01-06T06:53:36;31.50;;;3.15;;
53293;SDS011;39181;53.440;5.644;2023-01-06T06:56:03;31.13;;;3.05;;
53293;SDS011;39181;53.440;5.644;2023-01-06T06:58:29;34.33;;;3.35;;
53293;SDS011;39181;53.440;5.644;2023-01-06T07:00:55;26.05;;;3.50;;
53293;SDS011;39181;53.440;5.644;2023-01-06T07:03:21;32.80;;;2.95;;
53293;SDS011;39181;53.440;5.644;2023-01-06T07:05:47;36.65;;;2.72;;
53293;SDS011;39181;53.440;5.644;2023-01-06T07:08:14;28.00;;;2.67;;
53293;SDS011;39181;53.440;5.644;2023-01-06T07:10:40;23.63;;;2.53;;
53293;SDS011;39181;53.440;5.644;2023-01-06T07:13:05;18.65;;;1.90;;
53293;SDS011;39181;53.440;5.644;2023-01-06T07:15:31;28.02;;;2.33;;
53293;SDS011;39181;53.440;5.644;2023-01-06T07:18:03;24.65;;;2.38;;
53293;SDS011;39181;53.440;5.644;2023-01-06T07:20:31;21.13;;;1.88;;
53293;SDS011;39181;53.440;5.644;2023-01-06T07:22:57;23.23;;;1.98;;
53293;SDS011;39181;53.440;5.644;2023-01-06T07:25:23;23.10;;;1.80;;
53293;SDS011;39181;53.440;5.644;2023-01-06T07:27:52;21.80;;;2.30;;
53293;SDS011;39181;53.440;5.644;2023-01-06T07:30:19;19.77;;;2.65;;
53293;SDS011;39181;53.440;5.644;2023-01-06T07:32:45;18.67;;;1.77;;
53293;SDS011;39181;53.440;5.644;2023-01-06T07:35:10;25.65;;;3.17;;
53293;SDS011;39181;53.440;5.644;2023-01-06T07:37:36;18.40;;;2.13;;
53293;SDS011;39181;53.440;5.644;2023-01-06T07:40:02;22.23;;;2.65;;
53293;SDS011;39181;53.440;5.644;2023-01-06T07:42:28;22.52;;;2.30;;
53293;SDS011;39181;53.440;5.644;2023-01-06T07:44:53;16.00;;;1.38;;
53293;SDS011;39181;53.440;5.644;2023-01-06T07:47:19;17.73;;;1.60;;
53293;SDS011;39181;53.440;5.644;2023-01-06T07:49:44;26.27;;;2.47;;
53293;SDS011;39181;53.440;5.644;2023-01-06T07:52:10;14.13;;;1.58;;
53293;SDS011;39181;53.440;5.644;2023-01-06T07:54:35;15.65;;;1.50;;
53293;SDS011;39181;53.440;5.644;2023-01-06T07:57:01;17.02;;;1.65;;
53293;SDS011;39181;53.440;5.644;2023-01-06T07:59:26;12.23;;;1.27;;
53293;SDS011;39181;53.440;5.644;2023-01-06T08:01:52;13.20;;;1.42;;
53293;SDS011;39181;53.440;5.644;2023-01-06T08:04:17;16.95;;;1.50;;
53293;SDS011;39181;53.440;5.644;2023-01-06T08:06:43;18.25;;;1.45;;
53293;SDS011;39181;53.440;5.644;2023-01-06T08:09:09;19.27;;;1.40;;
53293;SDS011;39181;53.440;5.644;2023-01-06T08:11:34;21.38;;;2.10;;
53293;SDS011;39181;53.440;5.644;2023-01-06T08:14:00;15.73;;;2.10;;
53293;SDS011;39181;53.440;5.644;2023-01-06T08:16:25;14.80;;;1.60;;
53293;SDS011;39181;53.440;5.644;2023-01-06T08:18:51;15.20;;;2.00;;
53293;SDS011;39181;53.440;5.644;2023-01-06T08:21:16;24.27;;;2.70;;
53293;SDS011;39181;53.440;5.644;2023-01-06T08:23:42;21.88;;;2.03;;
53293;SDS011;39181;53.440;5.644;2023-01-06T08:26:09;21.27;;;2.47;;
53293;SDS011;39181;53.440;5.644;2023-01-06T08:28:39;22.92;;;2.25;;
53293;SDS011;39181;53.440;5.644;2023-01-06T08:31:12;19.23;;;1.88;;
53293;SDS011;39181;53.440;5.644;2023-01-06T08:33:40;22.80;;;2.90;;
53293;SDS011;39181;53.440;5.644;2023-01-06T08:36:06;38.15;;;3.08;;
53293;SDS011;39181;53.440;5.644;2023-01-06T08:38:34;21.17;;;2.03;;
53293;SDS011;39181;53.440;5.644;2023-01-06T08:41:00;15.73;;;2.03;;
53293;SDS011;39181;53.440;5.644;2023-01-06T08:43:27;31.85;;;2.13;;
53293;SDS011;39181;53.440;5.644;2023-01-06T08:45:57;28.23;;;2.47;;
53293;SDS011;39181;53.440;5.644;2023-01-06T08:48:27;17.88;;;1.67;;
53293;SDS011;39181;53.440;5.644;2023-01-06T08:50:53;22.90;;;2.25;;
53293;SDS011;39181;53.440;5.644;2023-01-06T08:53:20;17.73;;;2.00;;
53293;SDS011;39181;53.440;5.644;2023-01-06T08:55:46;17.00;;;1.73;;
53293;SDS011;39181;53.440;5.644;2023-01-06T08:58:11;16.77;;;1.70;;
53293;SDS011;39181;53.440;5.644;2023-01-06T09:00:38;14.50;;;1.55;;
53293;SDS011;39181;53.440;5.644;2023-01-06T09:03:05;16.23;;;1.45;;
53293;SDS011;39181;53.440;5.644;2023-01-06T09:05:30;17.05;;;2.53;;
53293;SDS011;39181;53.440;5.644;2023-01-06T09:07:56;15.05;;;1.75;;
53293;SDS011;39181;53.440;5.644;2023-01-06T09:10:22;19.30;;;2.30;;
53293;SDS011;39181;53.440;5.644;2023-01-06T09:12:48;12.32;;;1.55;;
53293;SDS011;39181;53.440;5.644;2023-01-06T09:15:14;16.88;;;2.08;;
53293;SDS011;39181;53.440;5.644;2023-01-06T09:17:39;21.02;;;1.85;;
53293;SDS011;39181;53.440;5.644;2023-01-06T09:20:05;16.70;;;1.50;;
53293;SDS011;39181;53.440;5.644;2023-01-06T09:22:31;22.23;;;3.08;;
53293;SDS011;39181;53.440;5.644;2023-01-06T09:24:57;15.55;;;1.88;;
53293;SDS011;39181;53.440;5.644;2023-01-06T09:27:23;9.75;;;1.65;;
53293;SDS011;39181;53.440;5.644;2023-01-06T09:29:49;21.60;;;2.10;;
53293;SDS011;39181;53.440;5.644;2023-01-06T09:32:14;10.63;;;2.45;;
53293;SDS011;39181;53.440;5.644;2023-01-06T09:34:40;12.95;;;1.80;;
53293;SDS011;39181;53.440;5.644;2023-01-06T09:37:05;19.23;;;1.92;;
53293;SDS011;39181;53.440;5.644;2023-01-06T09:39:31;14.32;;;2.00;;
53293;SDS011;39181;53.440;5.644;2023-01-06T09:42:18;19.95;;;1.77;;
53293;SDS011;39181;53.440;5.644;2023-01-06T09:45:08;22.27;;;2.22;;
53293;SDS011;39181;53.440;5.644;2023-01-06T09:47:52;12.00;;;2.03;;
53293;SDS011;39181;53.440;5.644;2023-01-06T09:53:02;17.63;;;1.80;;
53293;SDS011;39181;53.440;5.644;2023-01-06T09:55:43;12.45;;;2.55;;
53293;SDS011;39181;53.440;5.644;2023-01-06T09:58:12;23.95;;;2.13;;
53293;SDS011;39181;53.440;5.644;2023-01-06T10:00:44;15.18;;;2.15;;
53293;SDS011;39181;53.440;5.644;2023-01-06T10:03:23;19.63;;;2.35;;
53293;SDS011;39181;53.440;5.644;2023-01-06T10:08:37;11.77;;;2.10;;
53293;SDS011;39181;53.440;5.644;2023-01-06T10:11:09;16.33;;;2.33;;
53293;SDS011;39181;53.440;5.644;2023-01-06T10:14:05;13.15;;;2.25;;
53293;SDS011;39181;53.440;5.644;2023-01-06T10:19:28;19.88;;;3.05;;
53293;SDS011;39181;53.440;5.644;2023-01-06T10:25:19;16.63;;;2.10;;
53293;SDS011;39181;53.440;5.644;2023-01-06T10:27:52;17.02;;;2.58;;
53293;SDS011;39181;53.440;5.644;2023-01-06T10:30:28;20.15;;;1.90;;
53293;SDS011;39181;53.440;5.644;2023-01-06T10:33:03;15.23;;;1.75;;
53293;SDS011;39181;53.440;5.644;2023-01-06T10:35:29;14.75;;;2.40;;
53293;SDS011;39181;53.440;5.644;2023-01-06T10:37:56;12.63;;;2.00;;
53293;SDS011;39181;53.440;5.644;2023-01-06T10:40:27;21.67;;;2.40;;
53293;SDS011;39181;53.440;5.644;2023-01-06T10:42:58;14.88;;;1.95;;
53293;SDS011;39181;53.440;5.644;2023-01-06T10:48:27;14.65;;;2.00;;
53293;SDS011;39181;53.440;5.644;2023-01-06T10:50:53;23.90;;;2.47;;
53293;SDS011;39181;53.440;5.644;2023-01-06T10:53:18;14.85;;;1.75;;
53293;SDS011;39181;53.440;5.644;2023-01-06T10:55:48;16.70;;;2.50;;
53293;SDS011;39181;53.440;5.644;2023-01-06T10:58:41;18.45;;;2.40;;
53293;SDS011;39181;53.440;5.644;2023-01-06T11:01:29;11.98;;;1.55;;
53293;SDS011;39181;53.440;5.644;2023-01-06T11:04:05;21.60;;;2.53;;
53293;SDS011;39181;53.440;5.644;2023-01-06T11:06:49;24.95;;;3.20;;
53293;SDS011;39181;53.440;5.644;2023-01-06T11:09:23;16.23;;;2.15;;
53293;SDS011;39181;53.440;5.644;2023-01-06T11:11:54;22.85;;;2.00;;
53293;SDS011;39181;53.440;5.644;2023-01-06T11:14:24;24.08;;;3.10;;
53293;SDS011;39181;53.440;5.644;2023-01-06T11:16:56;23.73;;;3.08;;
53293;SDS011;39181;53.440;5.644;2023-01-06T11:21:57;18.55;;;2.50;;
53293;SDS011;39181;53.440;5.644;2023-01-06T11:24:24;27.15;;;3.75;;
53293;SDS011;39181;53.440;5.644;2023-01-06T11:29:27;19.80;;;2.35;;
53293;SDS011;39181;53.440;5.644;2023-01-06T11:32:01;14.35;;;2.75;;
53293;SDS011;39181;53.440;5.644;2023-01-06T11:34:38;19.35;;;2.67;;
53293;SDS011;39181;53.440;5.644;2023-01-06T11:37:27;15.82;;;2.88;;
53293;SDS011;39181;53.440;5.644;2023-01-06T11:39:58;12.93;;;2.17;;
53293;SDS011;39181;53.440;5.644;2023-01-06T11:42:25;21.75;;;2.33;;
53293;SDS011;39181;53.440;5.644;2023-01-06T11:44:50;19.50;;;2.33;;
53293;SDS011;39181;53.440;5.644;2023-01-06T11:47:23;10.32;;;2.05;;
53293;SDS011;39181;53.440;5.644;2023-01-06T11:49:52;22.10;;;2.17;;
53293;SDS011;39181;53.440;5.644;2023-01-06T11:52:22;21.00;;;1.83;;
53293;SDS011;39181;53.440;5.644;2023-01-06T11:57:26;19.13;;;3.00;;
53293;SDS011;39181;53.440;5.644;2023-01-06T12:08:37;23.92;;;2.30;;
53293;SDS011;39181;53.440;5.644;2023-01-06T12:13:39;22.90;;;2.85;;
53293;SDS011;39181;53.440;5.644;2023-01-06T12:16:06;24.85;;;2.63;;
53293;SDS011;39181;53.440;5.644;2023-01-06T12:18:39;22.02;;;2.25;;
53293;SDS011;39181;53.440;5.644;2023-01-06T12:21:07;17.55;;;2.10;;
53293;SDS011;39181;53.440;5.644;2023-01-06T12:23:38;12.95;;;2.15;;
53293;SDS011;39181;53.440;5.644;2023-01-06T12:26:08;17.58;;;2.72;;
53293;SDS011;39181;53.440;5.644;2023-01-06T12:28:39;29.75;;;2.45;;
53293;SDS011;39181;53.440;5.644;2023-01-06T12:33:44;18.15;;;2.58;;
53293;SDS011;39181;53.440;5.644;2023-01-06T12:39:15;21.73;;;2.78;;
53293;SDS011;39181;53.440;5.644;2023-01-06T12:41:50;25.98;;;3.00;;
53293;SDS011;39181;53.440;5.644;2023-01-06T12:46:58;27.50;;;3.20;;
53293;SDS011;39181;53.440;5.644;2023-01-06T12:53:07;23.33;;;3.05;;
53293;SDS011;39181;53.440;5.644;2023-01-06T12:55:25;25.05;;;2.55;;
53293;SDS011;39181;53.440;5.644;2023-01-06T12:58:04;20.42;;;3.47;;
53293;SDS011;39181;53.440;5.644;2023-01-06T13:05:47;20.13;;;2.38;;
53293;SDS011;39181;53.440;5.644;2023-01-06T13:14:02;24.40;;;2.50;;
53293;SDS011;39181;53.440;5.644;2023-01-06T13:19:55;19.45;;;2.78;;
53293;SDS011;39181;53.440;5.644;2023-01-06T13:25:09;20.15;;;2.78;;
53293;SDS011;39181;53.440;5.644;2023-01-06T13:36:32;21.77;;;3.20;;
53293;SDS011;39181;53.440;5.644;2023-01-06T13:39:10;33.30;;;4.60;;
53293;SDS011;39181;53.440;5.644;2023-01-06T13:41:42;18.15;;;3.17;;
53293;SDS011;39181;53.440;5.644;2023-01-06T13:44:17;19.35;;;3.22;;
53293;SDS011;39181;53.440;5.644;2023-01-06T13:46:47;19.05;;;2.50;;
53293;SDS011;39181;53.440;5.644;2023-01-06T13:49:16;29.98;;;3.85;;
53293;SDS011;39181;53.440;5.644;2023-01-06T13:51:43;23.73;;;2.80;;
53293;SDS011;39181;53.440;5.644;2023-01-06T14:00:10;31.75;;;3.95;;
53293;SDS011;39181;53.440;5.644;2023-01-06T14:07:48;26.10;;;3.25;;
53293;SDS011;39181;53.440;5.644;2023-01-06T14:10:30;23.38;;;3.08;;
53293;SDS011;39181;53.440;5.644;2023-01-06T14:12:57;22.73;;;2.75;;
53293;SDS011;39181;53.440;5.644;2023-01-06T14:15:31;24.10;;;2.50;;
53293;SDS011;39181;53.440;5.644;2023-01-06T14:17:59;30.60;;;3.13;;
53293;SDS011;39181;53.440;5.644;2023-01-06T14:20:30;22.33;;;2.70;;
53293;SDS011;39181;53.440;5.644;2023-01-06T14:23:00;26.00;;;2.72;;
53293;SDS011;39181;53.440;5.644;2023-01-06T14:25:39;20.77;;;3.28;;
53293;SDS011;39181;53.440;5.644;2023-01-06T14:28:20;32.08;;;2.65;;
53293;SDS011;39181;53.440;5.644;2023-01-06T14:31:35;16.60;;;2.58;;
53293;SDS011;39181;53.440;5.644;2023-01-06T14:33:53;18.48;;;2.30;;
53293;SDS011;39181;53.440;5.644;2023-01-06T14:36:28;20.35;;;2.30;;
53293;SDS011;39181;53.440;5.644;2023-01-06T14:39:04;26.02;;;4.05;;
53293;SDS011;39181;53.440;5.644;2023-01-06T14:47:05;20.30;;;2.60;;
53293;SDS011;39181;53.440;5.644;2023-01-06T14:52:19;24.55;;;2.85;;
53293;SDS011;39181;53.440;5.644;2023-01-06T14:54:55;22.23;;;2.17;;
53293;SDS011;39181;53.440;5.644;2023-01-06T14:57:24;19.42;;;3.10;;
53293;SDS011;39181;53.440;5.644;2023-01-06T15:02:58;23.93;;;2.73;;
53293;SDS011;39181;53.440;5.644;2023-01-06T15:05:30;23.38;;;2.83;;
53293;SDS011;39181;53.440;5.644;2023-01-06T15:08:01;16.15;;;2.55;;
53293;SDS011;39181;53.440;5.644;2023-01-06T15:10:33;21.80;;;2.60;;
53293;SDS011;39181;53.440;5.644;2023-01-06T15:13:02;21.90;;;3.08;;
53293;SDS011;39181;53.440;5.644;2023-01-06T15:15:43;21.30;;;2.28;;
53293;SDS011;39181;53.440;5.644;2023-01-06T15:18:11;17.42;;;2.40;;
53293;SDS011;39181;53.440;5.644;2023-01-06T15:20:39;24.42;;;3.25;;
53293;SDS011;39181;53.440;5.644;2023-01-06T15:23:06;14.10;;;3.60;;
53293;SDS011;39181;53.440;5.644;2023-01-06T15:25:36;26.48;;;3.30;;
53293;SDS011;39181;53.440;5.644;2023-01-06T15:28:02;37.35;;;6.05;;
53293;SDS011;39181;53.440;5.644;2023-01-06T15:30:28;37.60;;;4.72;;
53293;SDS011;39181;53.440;5.644;2023-01-06T15:32:58;24.00;;;5.28;;
53293;SDS011;39181;53.440;5.644;2023-01-06T15:35:26;22.70;;;3.88;;
53293;SDS011;39181;53.440;5.644;2023-01-06T15:38:03;25.00;;;3.15;;
53293;SDS011;39181;53.440;5.644;2023-01-06T15:40:39;23.80;;;3.30;;
53293;SDS011;39181;53.440;5.644;2023-01-06T15:43:06;21.25;;;3.38;;
53293;SDS011;39181;53.440;5.644;2023-01-06T15:45:32;24.42;;;3.95;;
53293;SDS011;39181;53.440;5.644;2023-01-06T15:47:59;27.02;;;3.63;;
53293;SDS011;39181;53.440;5.644;2023-01-06T15:50:32;21.63;;;2.95;;
53293;SDS011;39181;53.440;5.644;2023-01-06T15:52:59;24.45;;;2.63;;
53293;SDS011;39181;53.440;5.644;2023-01-06T15:55:34;22.67;;;2.88;;
53293;SDS011;39181;53.440;5.644;2023-01-06T15:58:02;24.33;;;2.30;;
53293;SDS011;39181;53.440;5.644;2023-01-06T16:00:49;19.42;;;2.80;;
53293;SDS011;39181;53.440;5.644;2023-01-06T16:03:25;26.35;;;3.42;;
53293;SDS011;39181;53.440;5.644;2023-01-06T16:06:03;22.95;;;3.05;;
53293;SDS011;39181;53.440;5.644;2023-01-06T16:08:33;28.20;;;4.45;;
53293;SDS011;39181;53.440;5.644;2023-01-06T16:13:41;20.98;;;3.75;;
53293;SDS011;39181;53.440;5.644;2023-01-06T16:18:34;28.08;;;3.00;;
53293;SDS011;39181;53.440;5.644;2023-01-06T16:24:04;23.00;;;2.40;;
53293;SDS011;39181;53.440;5.644;2023-01-06T16:26:31;26.58;;;2.80;;
53293;SDS011;39181;53.440;5.644;2023-01-06T16:29:19;26.17;;;2.92;;
53293;SDS011;39181;53.440;5.644;2023-01-06T16:31:54;23.13;;;3.20;;
53293;SDS011;39181;53.440;5.644;2023-01-06T16:36:46;22.67;;;2.55;;
53293;SDS011;39181;53.440;5.644;2023-01-06T16:39:13;28.70;;;2.97;;
53293;SDS011;39181;53.440;5.644;2023-01-06T16:41:40;26.90;;;3.22;;
53293;SDS011;39181;53.440;5.644;2023-01-06T16:44:28;25.40;;;3.33;;
53293;SDS011;39181;53.440;5.644;2023-01-06T16:46:55;33.05;;;2.58;;
53293;SDS011;39181;53.440;5.644;2023-01-06T16:49:21;27.13;;;2.53;;
53293;SDS011;39181;53.440;5.644;2023-01-06T16:51:47;23.35;;;3.22;;
53293;SDS011;39181;53.440;5.644;2023-01-06T16:54:14;25.88;;;2.70;;
53293;SDS011;39181;53.440;5.644;2023-01-06T16:56:46;28.15;;;3.00;;
53293;SDS011;39181;53.440;5.644;2023-01-06T16:59:15;24.63;;;2.55;;
53293;SDS011;39181;53.440;5.644;2023-01-06T17:01:45;32.05;;;2.53;;
53293;SDS011;39181;53.440;5.644;2023-01-06T17:04:12;20.83;;;2.15;;
53293;SDS011;39181;53.440;5.644;2023-01-06T17:06:39;23.95;;;4.00;;
53293;SDS011;39181;53.440;5.644;2023-01-06T17:09:17;25.80;;;2.50;;
53293;SDS011;39181;53.440;5.644;2023-01-06T17:11:44;22.58;;;2.13;;
53293;SDS011;39181;53.440;5.644;2023-01-06T17:14:18;23.52;;;2.83;;
53293;SDS011;39181;53.440;5.644;2023-01-06T17:16:45;13.07;;;1.95;;
53293;SDS011;39181;53.440;5.644;2023-01-06T17:19:21;25.02;;;2.38;;
53293;SDS011;39181;53.440;5.644;2023-01-06T17:21:53;22.17;;;2.70;;